sensor_id;sensor_type;location;lat;lon;timestamp;P1;durP1;ratioP1;P2;durP2;ratioP2
46767;SDS011;69007;48.978;18.066;2023-07-08T00:02:09;6.10;;;3.45;;
46767;SDS011;69007;48.978;18.066;2023-07-08T00:04:36;4.40;;;3.72;;
46767;SDS011;69007;48.978;18.066;2023-07-08T00:07:02;4.43;;;3.17;;
46767;SDS011;69007;48.978;18.066;2023-07-08T00:09:28;3.80;;;3.25;;
46767;SDS011;69007;48.978;18.066;2023-07-08T00:11:53;5.90;;;3.50;;
46767;SDS011;69007;48.978;18.066;2023-07-08T00:14:19;10.63;;;3.58;;
46767;SDS011;69007;48.978;18.066;2023-07-08T00:16:44;4.07;;;3.10;;
46767;SDS011;69007;48.978;18.066;2023-07-08T00:19:10;6.13;;;3.65;;
46767;SDS011;69007;48.978;18.066;2023-07-08T00:21:35;6.28;;;3.33;;
46767;SDS011;69007;48.978;18.066;2023-07-08T00:24:01;5.85;;;3.53;;
46767;SDS011;69007;48.978;18.066;2023-07-08T00:26:28;4.18;;;3.13;;
46767;SDS011;69007;48.978;18.066;2023-07-08T00:28:55;4.45;;;2.90;;
46767;SDS011;69007;48.978;18.066;2023-07-08T00:31:21;4.15;;;3.28;;
46767;SDS011;69007;48.978;18.066;2023-07-08T00:33:51;5.32;;;3.10;;
46767;SDS011;69007;48.978;18.066;2023-07-08T00:36:20;5.55;;;3.05;;
46767;SDS011;69007;48.978;18.066;2023-07-08T00:38:46;4.57;;;3.45;;
46767;SDS011;69007;48.978;18.066;2023-07-08T00:44:10;4.35;;;3.38;;
46767;SDS011;69007;48.978;18.066;2023-07-08T00:49:28;6.88;;;3.75;;
46767;SDS011;69007;48.978;18.066;2023-07-08T00:54:54;5.00;;;3.63;;
46767;SDS011;69007;48.978;18.066;2023-07-08T00:59:52;5.22;;;3.10;;
46767;SDS011;69007;48.978;18.066;2023-07-08T01:02:22;7.30;;;4.22;;
46767;SDS011;69007;48.978;18.066;2023-07-08T01:07:19;4.45;;;3.17;;
46767;SDS011;69007;48.978;18.066;2023-07-08T01:09:56;7.15;;;3.90;;
46767;SDS011;69007;48.978;18.066;2023-07-08T01:12:28;8.65;;;4.00;;
46767;SDS011;69007;48.978;18.066;2023-07-08T01:14:59;7.45;;;3.35;;
46767;SDS011;69007;48.978;18.066;2023-07-08T01:17:28;5.20;;;3.80;;
46767;SDS011;69007;48.978;18.066;2023-07-08T01:19:57;6.82;;;3.30;;
46767;SDS011;69007;48.978;18.066;2023-07-08T01:22:24;10.10;;;3.70;;
46767;SDS011;69007;48.978;18.066;2023-07-08T01:24:49;4.15;;;3.38;;
46767;SDS011;69007;48.978;18.066;2023-07-08T01:27:17;4.72;;;3.33;;
46767;SDS011;69007;48.978;18.066;2023-07-08T01:29:44;7.18;;;3.75;;
46767;SDS011;69007;48.978;18.066;2023-07-08T01:32:12;5.93;;;3.50;;
46767;SDS011;69007;48.978;18.066;2023-07-08T01:34:43;6.68;;;3.53;;
46767;SDS011;69007;48.978;18.066;2023-07-08T01:37:25;4.70;;;3.53;;
46767;SDS011;69007;48.978;18.066;2023-07-08T01:42:50;6.63;;;3.97;;
46767;SDS011;69007;48.978;18.066;2023-07-08T01:45:17;3.70;;;3.35;;
46767;SDS011;69007;48.978;18.066;2023-07-08T01:47:47;7.90;;;3.63;;
46767;SDS011;69007;48.978;18.066;2023-07-08T01:50:16;6.10;;;3.45;;
46767;SDS011;69007;48.978;18.066;2023-07-08T01:52:43;6.50;;;3.50;;
46767;SDS011;69007;48.978;18.066;2023-07-08T01:55:08;7.13;;;3.83;;
46767;SDS011;69007;48.978;18.066;2023-07-08T01:57:34;10.60;;;3.88;;
46767;SDS011;69007;48.978;18.066;2023-07-08T01:59:59;3.60;;;3.22;;
46767;SDS011;69007;48.978;18.066;2023-07-08T02:02:25;9.48;;;3.78;;
46767;SDS011;69007;48.978;18.066;2023-07-08T02:04:50;6.60;;;4.28;;
46767;SDS011;69007;48.978;18.066;2023-07-08T02:07:16;5.32;;;3.25;;
46767;SDS011;69007;48.978;18.066;2023-07-08T02:09:42;6.03;;;3.67;;
46767;SDS011;69007;48.978;18.066;2023-07-08T02:12:08;4.43;;;3.20;;
46767;SDS011;69007;48.978;18.066;2023-07-08T02:14:33;4.15;;;3.38;;
46767;SDS011;69007;48.978;18.066;2023-07-08T02:16:59;6.93;;;3.38;;
46767;SDS011;69007;48.978;18.066;2023-07-08T02:19:24;6.78;;;3.53;;
46767;SDS011;69007;48.978;18.066;2023-07-08T02:21:52;16.77;;;5.18;;
46767;SDS011;69007;48.978;18.066;2023-07-08T02:24:18;7.28;;;3.20;;
46767;SDS011;69007;48.978;18.066;2023-07-08T02:26:43;6.68;;;3.22;;
46767;SDS011;69007;48.978;18.066;2023-07-08T02:29:08;6.88;;;3.55;;
46767;SDS011;69007;48.978;18.066;2023-07-08T02:31:34;6.85;;;3.63;;
46767;SDS011;69007;48.978;18.066;2023-07-08T02:33:59;5.80;;;3.25;;
46767;SDS011;69007;48.978;18.066;2023-07-08T02:36:27;4.97;;;3.35;;
46767;SDS011;69007;48.978;18.066;2023-07-08T02:38:52;7.05;;;3.58;;
46767;SDS011;69007;48.978;18.066;2023-07-08T02:41:18;3.67;;;3.03;;
46767;SDS011;69007;48.978;18.066;2023-07-08T02:43:43;10.50;;;3.85;;
46767;SDS011;69007;48.978;18.066;2023-07-08T02:46:08;6.55;;;3.58;;
46767;SDS011;69007;48.978;18.066;2023-07-08T02:48:34;5.32;;;3.72;;
46767;SDS011;69007;48.978;18.066;2023-07-08T02:51:00;3.58;;;3.13;;
46767;SDS011;69007;48.978;18.066;2023-07-08T02:53:29;4.35;;;3.75;;
46767;SDS011;69007;48.978;18.066;2023-07-08T02:55:55;6.22;;;3.65;;
46767;SDS011;69007;48.978;18.066;2023-07-08T02:58:20;5.90;;;3.47;;
46767;SDS011;69007;48.978;18.066;2023-07-08T03:00:50;5.28;;;3.60;;
46767;SDS011;69007;48.978;18.066;2023-07-08T03:03:20;5.07;;;3.50;;
46767;SDS011;69007;48.978;18.066;2023-07-08T03:05:58;7.20;;;4.95;;
46767;SDS011;69007;48.978;18.066;2023-07-08T03:08:26;6.10;;;3.65;;
46767;SDS011;69007;48.978;18.066;2023-07-08T03:10:56;5.30;;;3.45;;
46767;SDS011;69007;48.978;18.066;2023-07-08T03:13:23;6.95;;;3.65;;
46767;SDS011;69007;48.978;18.066;2023-07-08T03:15:49;5.85;;;3.60;;
46767;SDS011;69007;48.978;18.066;2023-07-08T03:18:15;4.82;;;3.58;;
46767;SDS011;69007;48.978;18.066;2023-07-08T03:20:41;5.63;;;3.33;;
46767;SDS011;69007;48.978;18.066;2023-07-08T03:23:09;3.90;;;3.50;;
46767;SDS011;69007;48.978;18.066;2023-07-08T03:25:35;4.72;;;3.53;;
46767;SDS011;69007;48.978;18.066;2023-07-08T03:28:01;6.55;;;3.50;;
46767;SDS011;69007;48.978;18.066;2023-07-08T03:30:27;6.50;;;3.95;;
46767;SDS011;69007;48.978;18.066;2023-07-08T03:32:52;4.63;;;3.60;;
46767;SDS011;69007;48.978;18.066;2023-07-08T03:35:20;6.43;;;3.28;;
46767;SDS011;69007;48.978;18.066;2023-07-08T03:37:47;4.10;;;3.53;;
46767;SDS011;69007;48.978;18.066;2023-07-08T03:40:12;5.00;;;3.33;;
46767;SDS011;69007;48.978;18.066;2023-07-08T03:42:38;4.60;;;3.60;;
46767;SDS011;69007;48.978;18.066;2023-07-08T03:45:04;5.53;;;3.72;;
46767;SDS011;69007;48.978;18.066;2023-07-08T03:47:30;4.75;;;3.22;;
46767;SDS011;69007;48.978;18.066;2023-07-08T03:49:55;4.15;;;3.20;;
46767;SDS011;69007;48.978;18.066;2023-07-08T03:52:20;14.85;;;3.30;;
46767;SDS011;69007;48.978;18.066;2023-07-08T03:54:46;4.88;;;3.40;;
46767;SDS011;69007;48.978;18.066;2023-07-08T03:57:12;3.75;;;3.38;;
46767;SDS011;69007;48.978;18.066;2023-07-08T03:59:37;5.97;;;3.75;;
46767;SDS011;69007;48.978;18.066;2023-07-08T04:02:03;5.20;;;3.42;;
46767;SDS011;69007;48.978;18.066;2023-07-08T04:04:28;4.10;;;3.65;;
46767;SDS011;69007;48.978;18.066;2023-07-08T04:06:54;4.75;;;3.67;;
46767;SDS011;69007;48.978;18.066;2023-07-08T04:09:19;5.07;;;3.42;;
46767;SDS011;69007;48.978;18.066;2023-07-08T04:11:45;11.98;;;4.20;;
46767;SDS011;69007;48.978;18.066;2023-07-08T04:14:11;4.90;;;3.60;;
46767;SDS011;69007;48.978;18.066;2023-07-08T04:19:22;5.38;;;3.33;;
46767;SDS011;69007;48.978;18.066;2023-07-08T04:21:49;4.70;;;3.60;;
46767;SDS011;69007;48.978;18.066;2023-07-08T04:24:15;4.60;;;3.63;;
46767;SDS011;69007;48.978;18.066;2023-07-08T04:26:43;6.07;;;3.63;;
46767;SDS011;69007;48.978;18.066;2023-07-08T04:29:15;6.30;;;3.60;;
46767;SDS011;69007;48.978;18.066;2023-07-08T04:31:42;5.30;;;3.70;;
46767;SDS011;69007;48.978;18.066;2023-07-08T04:34:08;8.38;;;3.80;;
46767;SDS011;69007;48.978;18.066;2023-07-08T04:36:34;8.63;;;3.92;;
46767;SDS011;69007;48.978;18.066;2023-07-08T04:39:00;5.07;;;3.67;;
46767;SDS011;69007;48.978;18.066;2023-07-08T04:41:27;7.40;;;3.53;;
46767;SDS011;69007;48.978;18.066;2023-07-08T04:43:52;8.25;;;4.00;;
46767;SDS011;69007;48.978;18.066;2023-07-08T04:46:37;5.90;;;3.80;;
46767;SDS011;69007;48.978;18.066;2023-07-08T04:49:06;6.28;;;3.95;;
46767;SDS011;69007;48.978;18.066;2023-07-08T04:51:34;6.22;;;3.70;;
46767;SDS011;69007;48.978;18.066;2023-07-08T04:54:00;6.72;;;4.05;;
46767;SDS011;69007;48.978;18.066;2023-07-08T04:56:34;6.25;;;3.53;;
46767;SDS011;69007;48.978;18.066;2023-07-08T04:59:04;6.43;;;3.72;;
46767;SDS011;69007;48.978;18.066;2023-07-08T05:01:31;4.43;;;3.25;;
46767;SDS011;69007;48.978;18.066;2023-07-08T05:03:57;4.55;;;3.53;;
46767;SDS011;69007;48.978;18.066;2023-07-08T05:06:22;5.93;;;3.88;;
46767;SDS011;69007;48.978;18.066;2023-07-08T05:08:47;7.18;;;3.88;;
46767;SDS011;69007;48.978;18.066;2023-07-08T05:11:13;6.10;;;3.63;;
46767;SDS011;69007;48.978;18.066;2023-07-08T05:13:38;6.57;;;3.20;;
46767;SDS011;69007;48.978;18.066;2023-07-08T05:16:04;6.22;;;3.65;;
46767;SDS011;69007;48.978;18.066;2023-07-08T05:18:29;7.22;;;3.30;;
46767;SDS011;69007;48.978;18.066;2023-07-08T05:20:55;7.10;;;3.33;;
46767;SDS011;69007;48.978;18.066;2023-07-08T05:23:20;4.32;;;3.22;;
46767;SDS011;69007;48.978;18.066;2023-07-08T05:25:46;4.32;;;3.17;;
46767;SDS011;69007;48.978;18.066;2023-07-08T05:28:12;5.82;;;3.33;;
46767;SDS011;69007;48.978;18.066;2023-07-08T05:30:39;8.90;;;3.03;;
46767;SDS011;69007;48.978;18.066;2023-07-08T05:33:05;7.63;;;2.70;;
46767;SDS011;69007;48.978;18.066;2023-07-08T05:35:30;3.17;;;2.88;;
46767;SDS011;69007;48.978;18.066;2023-07-08T05:37:56;4.82;;;3.47;;
46767;SDS011;69007;48.978;18.066;2023-07-08T05:40:21;11.73;;;3.30;;
46767;SDS011;69007;48.978;18.066;2023-07-08T05:42:46;10.40;;;3.60;;
46767;SDS011;69007;48.978;18.066;2023-07-08T05:45:12;14.60;;;3.90;;
46767;SDS011;69007;48.978;18.066;2023-07-08T05:47:37;6.78;;;3.28;;
46767;SDS011;69007;48.978;18.066;2023-07-08T05:50:03;8.75;;;3.10;;
46767;SDS011;69007;48.978;18.066;2023-07-08T05:52:29;9.75;;;3.83;;
46767;SDS011;69007;48.978;18.066;2023-07-08T05:54:54;6.22;;;3.10;;
46767;SDS011;69007;48.978;18.066;2023-07-08T05:57:20;7.18;;;3.17;;
46767;SDS011;69007;48.978;18.066;2023-07-08T05:59:46;11.05;;;3.42;;
46767;SDS011;69007;48.978;18.066;2023-07-08T06:02:11;9.02;;;3.33;;
46767;SDS011;69007;48.978;18.066;2023-07-08T06:04:37;9.52;;;3.47;;
46767;SDS011;69007;48.978;18.066;2023-07-08T06:07:03;3.63;;;2.97;;
46767;SDS011;69007;48.978;18.066;2023-07-08T06:09:29;5.43;;;3.15;;
46767;SDS011;69007;48.978;18.066;2023-07-08T06:11:54;14.88;;;9.00;;
46767;SDS011;69007;48.978;18.066;2023-07-08T06:14:20;6.80;;;4.63;;
46767;SDS011;69007;48.978;18.066;2023-07-08T06:16:45;7.20;;;3.03;;
46767;SDS011;69007;48.978;18.066;2023-07-08T06:19:11;5.82;;;2.70;;
46767;SDS011;69007;48.978;18.066;2023-07-08T06:21:36;5.07;;;2.83;;
46767;SDS011;69007;48.978;18.066;2023-07-08T06:24:03;5.93;;;3.30;;
46767;SDS011;69007;48.978;18.066;2023-07-08T06:26:28;5.15;;;2.78;;
46767;SDS011;69007;48.978;18.066;2023-07-08T06:28:54;6.50;;;3.03;;
46767;SDS011;69007;48.978;18.066;2023-07-08T06:31:19;6.97;;;3.10;;
46767;SDS011;69007;48.978;18.066;2023-07-08T06:33:45;6.05;;;2.92;;
46767;SDS011;69007;48.978;18.066;2023-07-08T06:36:10;5.88;;;3.20;;
46767;SDS011;69007;48.978;18.066;2023-07-08T06:38:35;4.75;;;3.25;;
46767;SDS011;69007;48.978;18.066;2023-07-08T06:41:01;11.00;;;3.50;;
46767;SDS011;69007;48.978;18.066;2023-07-08T06:43:26;7.20;;;3.30;;
46767;SDS011;69007;48.978;18.066;2023-07-08T06:45:51;5.35;;;3.78;;
46767;SDS011;69007;48.978;18.066;2023-07-08T06:48:17;6.75;;;3.55;;
46767;SDS011;69007;48.978;18.066;2023-07-08T06:50:45;6.80;;;4.03;;
46767;SDS011;69007;48.978;18.066;2023-07-08T06:53:11;7.32;;;4.32;;
46767;SDS011;69007;48.978;18.066;2023-07-08T06:55:36;11.48;;;4.80;;
46767;SDS011;69007;48.978;18.066;2023-07-08T06:58:02;10.18;;;4.30;;
46767;SDS011;69007;48.978;18.066;2023-07-08T07:00:27;10.55;;;4.55;;
46767;SDS011;69007;48.978;18.066;2023-07-08T07:02:53;6.38;;;3.95;;
46767;SDS011;69007;48.978;18.066;2023-07-08T07:05:18;9.52;;;4.10;;
46767;SDS011;69007;48.978;18.066;2023-07-08T07:07:43;4.55;;;3.70;;
46767;SDS011;69007;48.978;18.066;2023-07-08T07:10:09;8.63;;;4.03;;
46767;SDS011;69007;48.978;18.066;2023-07-08T07:12:34;5.82;;;3.25;;
46767;SDS011;69007;48.978;18.066;2023-07-08T07:15:00;5.93;;;3.55;;
46767;SDS011;69007;48.978;18.066;2023-07-08T07:17:26;7.30;;;3.70;;
46767;SDS011;69007;48.978;18.066;2023-07-08T07:19:52;4.50;;;3.40;;
46767;SDS011;69007;48.978;18.066;2023-07-08T07:22:18;5.03;;;3.67;;
46767;SDS011;69007;48.978;18.066;2023-07-08T07:24:44;7.20;;;3.50;;
46767;SDS011;69007;48.978;18.066;2023-07-08T07:27:09;4.45;;;3.38;;
46767;SDS011;69007;48.978;18.066;2023-07-08T07:29:40;8.40;;;3.83;;
46767;SDS011;69007;48.978;18.066;2023-07-08T07:32:10;3.58;;;3.28;;
46767;SDS011;69007;48.978;18.066;2023-07-08T07:34:36;3.95;;;3.00;;
46767;SDS011;69007;48.978;18.066;2023-07-08T07:37:02;3.50;;;3.20;;
46767;SDS011;69007;48.978;18.066;2023-07-08T07:39:27;5.28;;;3.50;;
46767;SDS011;69007;48.978;18.066;2023-07-08T07:41:53;3.85;;;3.13;;
46767;SDS011;69007;48.978;18.066;2023-07-08T07:44:19;3.88;;;3.13;;
46767;SDS011;69007;48.978;18.066;2023-07-08T07:46:45;3.67;;;3.05;;
46767;SDS011;69007;48.978;18.066;2023-07-08T07:49:11;5.55;;;3.00;;
46767;SDS011;69007;48.978;18.066;2023-07-08T07:51:37;8.50;;;3.33;;
46767;SDS011;69007;48.978;18.066;2023-07-08T07:54:02;5.85;;;3.13;;
46767;SDS011;69007;48.978;18.066;2023-07-08T07:56:28;8.10;;;3.03;;
46767;SDS011;69007;48.978;18.066;2023-07-08T07:58:53;6.70;;;3.38;;
46767;SDS011;69007;48.978;18.066;2023-07-08T08:01:18;4.65;;;2.42;;
46767;SDS011;69007;48.978;18.066;2023-07-08T08:03:44;8.73;;;3.08;;
46767;SDS011;69007;48.978;18.066;2023-07-08T08:06:10;4.03;;;2.30;;
46767;SDS011;69007;48.978;18.066;2023-07-08T08:08:36;2.72;;;2.53;;
46767;SDS011;69007;48.978;18.066;2023-07-08T08:11:01;4.45;;;2.58;;
46767;SDS011;69007;48.978;18.066;2023-07-08T08:13:26;3.90;;;2.70;;
46767;SDS011;69007;48.978;18.066;2023-07-08T08:15:55;4.82;;;2.60;;
46767;SDS011;69007;48.978;18.066;2023-07-08T08:18:22;5.88;;;2.60;;
46767;SDS011;69007;48.978;18.066;2023-07-08T08:20:49;3.22;;;2.50;;
46767;SDS011;69007;48.978;18.066;2023-07-08T08:23:15;2.80;;;2.38;;
46767;SDS011;69007;48.978;18.066;2023-07-08T08:25:40;3.00;;;2.67;;
46767;SDS011;69007;48.978;18.066;2023-07-08T08:28:06;2.70;;;2.50;;
46767;SDS011;69007;48.978;18.066;2023-07-08T08:30:31;5.35;;;2.83;;
46767;SDS011;69007;48.978;18.066;2023-07-08T08:32:58;3.47;;;2.47;;
46767;SDS011;69007;48.978;18.066;2023-07-08T08:35:23;5.47;;;2.92;;
46767;SDS011;69007;48.978;18.066;2023-07-08T08:37:49;3.63;;;3.10;;
46767;SDS011;69007;48.978;18.066;2023-07-08T08:40:15;5.03;;;3.05;;
46767;SDS011;69007;48.978;18.066;2023-07-08T08:42:44;4.43;;;2.85;;
46767;SDS011;69007;48.978;18.066;2023-07-08T08:45:15;2.78;;;2.50;;
46767;SDS011;69007;48.978;18.066;2023-07-08T08:47:45;10.32;;;2.42;;
46767;SDS011;69007;48.978;18.066;2023-07-08T08:50:31;3.53;;;2.80;;
46767;SDS011;69007;48.978;18.066;2023-07-08T08:53:03;2.53;;;2.33;;
46767;SDS011;69007;48.978;18.066;2023-07-08T08:55:30;8.45;;;2.60;;
46767;SDS011;69007;48.978;18.066;2023-07-08T08:57:59;9.02;;;2.90;;
46767;SDS011;69007;48.978;18.066;2023-07-08T09:00:30;4.43;;;2.35;;
46767;SDS011;69007;48.978;18.066;2023-07-08T09:03:14;3.63;;;2.60;;
46767;SDS011;69007;48.978;18.066;2023-07-08T09:05:45;2.63;;;2.38;;
46767;SDS011;69007;48.978;18.066;2023-07-08T09:08:16;3.40;;;2.45;;
46767;SDS011;69007;48.978;18.066;2023-07-08T09:10:52;6.30;;;2.70;;
46767;SDS011;69007;48.978;18.066;2023-07-08T09:13:22;3.22;;;2.80;;
46767;SDS011;69007;48.978;18.066;2023-07-08T09:15:54;3.17;;;2.75;;
46767;SDS011;69007;48.978;18.066;2023-07-08T09:18:27;5.10;;;2.67;;
46767;SDS011;69007;48.978;18.066;2023-07-08T09:21:01;5.07;;;2.85;;
46767;SDS011;69007;48.978;18.066;2023-07-08T09:23:44;3.25;;;2.50;;
46767;SDS011;69007;48.978;18.066;2023-07-08T09:26:16;8.40;;;2.70;;
46767;SDS011;69007;48.978;18.066;2023-07-08T09:28:45;4.22;;;2.85;;
46767;SDS011;69007;48.978;18.066;2023-07-08T09:31:20;6.10;;;2.53;;
46767;SDS011;69007;48.978;18.066;2023-07-08T09:33:46;6.25;;;2.65;;
46767;SDS011;69007;48.978;18.066;2023-07-08T09:36:18;2.35;;;2.15;;
46767;SDS011;69007;48.978;18.066;2023-07-08T09:38:48;3.85;;;2.83;;
46767;SDS011;69007;48.978;18.066;2023-07-08T09:41:17;2.63;;;2.30;;
46767;SDS011;69007;48.978;18.066;2023-07-08T09:44:02;4.57;;;2.70;;
46767;SDS011;69007;48.978;18.066;2023-07-08T09:46:30;2.75;;;2.53;;
46767;SDS011;69007;48.978;18.066;2023-07-08T09:49:08;4.75;;;2.58;;
46767;SDS011;69007;48.978;18.066;2023-07-08T09:51:40;4.00;;;2.50;;
46767;SDS011;69007;48.978;18.066;2023-07-08T09:54:05;2.55;;;2.35;;
46767;SDS011;69007;48.978;18.066;2023-07-08T09:56:30;2.50;;;2.17;;
46767;SDS011;69007;48.978;18.066;2023-07-08T09:58:56;3.22;;;2.45;;
46767;SDS011;69007;48.978;18.066;2023-07-08T10:01:23;3.13;;;2.83;;
46767;SDS011;69007;48.978;18.066;2023-07-08T10:03:50;6.10;;;2.40;;
46767;SDS011;69007;48.978;18.066;2023-07-08T10:06:24;5.32;;;2.55;;
46767;SDS011;69007;48.978;18.066;2023-07-08T10:08:54;7.30;;;2.35;;
46767;SDS011;69007;48.978;18.066;2023-07-08T10:11:37;5.32;;;2.60;;
46767;SDS011;69007;48.978;18.066;2023-07-08T10:16:48;2.78;;;2.55;;
46767;SDS011;69007;48.978;18.066;2023-07-08T10:19:14;9.10;;;2.60;;
46767;SDS011;69007;48.978;18.066;2023-07-08T10:32:21;2.70;;;2.25;;
46767;SDS011;69007;48.978;18.066;2023-07-08T10:35:21;3.95;;;2.70;;
46767;SDS011;69007;48.978;18.066;2023-07-08T10:46:11;3.83;;;2.50;;
46767;SDS011;69007;48.978;18.066;2023-07-08T10:56:57;3.38;;;2.58;;
46767;SDS011;69007;48.978;18.066;2023-07-08T10:59:37;3.47;;;2.65;;
46767;SDS011;69007;48.978;18.066;2023-07-08T11:08:22;4.73;;;2.70;;
46767;SDS011;69007;48.978;18.066;2023-07-08T11:10:55;6.45;;;3.10;;
46767;SDS011;69007;48.978;18.066;2023-07-08T11:13:26;3.53;;;2.55;;
46767;SDS011;69007;48.978;18.066;2023-07-08T11:15:56;5.68;;;2.78;;
46767;SDS011;69007;48.978;18.066;2023-07-08T11:18:34;3.88;;;2.95;;
46767;SDS011;69007;48.978;18.066;2023-07-08T11:21:22;9.15;;;2.78;;
46767;SDS011;69007;48.978;18.066;2023-07-08T11:23:54;6.60;;;2.47;;
46767;SDS011;69007;48.978;18.066;2023-07-08T11:28:57;6.65;;;2.72;;
46767;SDS011;69007;48.978;18.066;2023-07-08T11:31:24;2.60;;;2.15;;
46767;SDS011;69007;48.978;18.066;2023-07-08T11:33:52;2.63;;;2.40;;
46767;SDS011;69007;48.978;18.066;2023-07-08T11:36:19;2.33;;;2.15;;
46767;SDS011;69007;48.978;18.066;2023-07-08T11:38:51;3.97;;;2.30;;
46767;SDS011;69007;48.978;18.066;2023-07-08T11:41:22;4.22;;;2.70;;
46767;SDS011;69007;48.978;18.066;2023-07-08T11:44:03;5.35;;;2.45;;
46767;SDS011;69007;48.978;18.066;2023-07-08T11:46:31;3.20;;;2.70;;
46767;SDS011;69007;48.978;18.066;2023-07-08T11:49:19;6.65;;;3.15;;
46767;SDS011;69007;48.978;18.066;2023-07-08T11:51:44;4.90;;;3.00;;
46767;SDS011;69007;48.978;18.066;2023-07-08T11:59:21;3.17;;;2.83;;
46767;SDS011;69007;48.978;18.066;2023-07-08T12:04:55;4.60;;;2.80;;
46767;SDS011;69007;48.978;18.066;2023-07-08T12:07:47;2.72;;;2.53;;
46767;SDS011;69007;48.978;18.066;2023-07-08T12:10:17;2.80;;;2.55;;
46767;SDS011;69007;48.978;18.066;2023-07-08T12:12:49;5.68;;;3.00;;
46767;SDS011;69007;48.978;18.066;2023-07-08T12:15:22;6.53;;;2.85;;
46767;SDS011;69007;48.978;18.066;2023-07-08T12:17:51;4.63;;;2.53;;
46767;SDS011;69007;48.978;18.066;2023-07-08T12:20:24;4.68;;;2.50;;
46767;SDS011;69007;48.978;18.066;2023-07-08T12:22:53;3.65;;;2.72;;
46767;SDS011;69007;48.978;18.066;2023-07-08T12:25:20;7.50;;;2.80;;
46767;SDS011;69007;48.978;18.066;2023-07-08T12:27:53;2.92;;;2.65;;
46767;SDS011;69007;48.978;18.066;2023-07-08T12:30:21;5.65;;;2.58;;
46767;SDS011;69007;48.978;18.066;2023-07-08T12:32:47;4.35;;;2.60;;
46767;SDS011;69007;48.978;18.066;2023-07-08T12:35:21;4.63;;;2.60;;
46767;SDS011;69007;48.978;18.066;2023-07-08T12:37:53;3.08;;;2.80;;
46767;SDS011;69007;48.978;18.066;2023-07-08T12:40:22;4.82;;;2.60;;
46767;SDS011;69007;48.978;18.066;2023-07-08T12:42:48;6.15;;;3.10;;
46767;SDS011;69007;48.978;18.066;2023-07-08T12:45:18;3.17;;;2.30;;
46767;SDS011;69007;48.978;18.066;2023-07-08T12:47:46;4.72;;;2.72;;
46767;SDS011;69007;48.978;18.066;2023-07-08T12:50:11;4.57;;;2.70;;
46767;SDS011;69007;48.978;18.066;2023-07-08T12:52:38;5.78;;;2.75;;
46767;SDS011;69007;48.978;18.066;2023-07-08T12:55:04;3.38;;;3.08;;
46767;SDS011;69007;48.978;18.066;2023-07-08T12:57:30;2.90;;;2.58;;
46767;SDS011;69007;48.978;18.066;2023-07-08T12:59:56;6.97;;;2.90;;
46767;SDS011;69007;48.978;18.066;2023-07-08T13:02:23;2.85;;;2.53;;
46767;SDS011;69007;48.978;18.066;2023-07-08T13:04:54;4.28;;;2.95;;
46767;SDS011;69007;48.978;18.066;2023-07-08T13:07:29;7.60;;;3.00;;
46767;SDS011;69007;48.978;18.066;2023-07-08T13:09:57;6.03;;;2.70;;
46767;SDS011;69007;48.978;18.066;2023-07-08T13:12:22;6.28;;;2.78;;
46767;SDS011;69007;48.978;18.066;2023-07-08T13:14:49;5.63;;;2.45;;
46767;SDS011;69007;48.978;18.066;2023-07-08T13:17:18;3.95;;;2.50;;
46767;SDS011;69007;48.978;18.066;2023-07-08T13:19:44;4.63;;;2.38;;
46767;SDS011;69007;48.978;18.066;2023-07-08T13:22:17;6.40;;;2.47;;
46767;SDS011;69007;48.978;18.066;2023-07-08T13:24:45;7.65;;;2.67;;
46767;SDS011;69007;48.978;18.066;2023-07-08T13:27:22;5.28;;;2.70;;
46767;SDS011;69007;48.978;18.066;2023-07-08T13:29:52;2.67;;;2.30;;
46767;SDS011;69007;48.978;18.066;2023-07-08T13:32:19;7.47;;;3.13;;
46767;SDS011;69007;48.978;18.066;2023-07-08T13:34:44;4.55;;;2.50;;
46767;SDS011;69007;48.978;18.066;2023-07-08T13:37:14;2.78;;;2.40;;
46767;SDS011;69007;48.978;18.066;2023-07-08T13:39:42;3.38;;;2.40;;
46767;SDS011;69007;48.978;18.066;2023-07-08T13:42:09;2.10;;;1.92;;
46767;SDS011;69007;48.978;18.066;2023-07-08T13:44:41;5.72;;;2.60;;
46767;SDS011;69007;48.978;18.066;2023-07-08T13:47:27;3.85;;;2.40;;
46767;SDS011;69007;48.978;18.066;2023-07-08T13:50:29;8.02;;;2.50;;
46767;SDS011;69007;48.978;18.066;2023-07-08T13:52:54;3.35;;;2.28;;
46767;SDS011;69007;48.978;18.066;2023-07-08T13:55:21;2.90;;;2.30;;
46767;SDS011;69007;48.978;18.066;2023-07-08T13:57:55;3.08;;;2.40;;
46767;SDS011;69007;48.978;18.066;2023-07-08T14:00:27;3.88;;;2.67;;
46767;SDS011;69007;48.978;18.066;2023-07-08T14:02:55;14.50;;;2.40;;
46767;SDS011;69007;48.978;18.066;2023-07-08T14:05:20;3.33;;;2.47;;
46767;SDS011;69007;48.978;18.066;2023-07-08T14:07:46;3.67;;;2.30;;
46767;SDS011;69007;48.978;18.066;2023-07-08T14:10:13;2.40;;;2.20;;
46767;SDS011;69007;48.978;18.066;2023-07-08T14:12:39;7.05;;;2.10;;
46767;SDS011;69007;48.978;18.066;2023-07-08T14:15:05;2.45;;;2.20;;
46767;SDS011;69007;48.978;18.066;2023-07-08T14:17:31;3.03;;;2.40;;
46767;SDS011;69007;48.978;18.066;2023-07-08T14:19:57;2.30;;;2.10;;
46767;SDS011;69007;48.978;18.066;2023-07-08T14:22:23;6.05;;;2.50;;
46767;SDS011;69007;48.978;18.066;2023-07-08T14:24:50;3.90;;;2.25;;
46767;SDS011;69007;48.978;18.066;2023-07-08T14:27:16;4.15;;;2.55;;
46767;SDS011;69007;48.978;18.066;2023-07-08T14:29:43;3.65;;;2.40;;
46767;SDS011;69007;48.978;18.066;2023-07-08T14:34:52;2.55;;;2.33;;
46767;SDS011;69007;48.978;18.066;2023-07-08T14:37:20;4.90;;;2.17;;
46767;SDS011;69007;48.978;18.066;2023-07-08T14:39:46;7.85;;;2.20;;
46767;SDS011;69007;48.978;18.066;2023-07-08T14:42:12;2.50;;;2.30;;
46767;SDS011;69007;48.978;18.066;2023-07-08T14:44:39;2.78;;;2.20;;
46767;SDS011;69007;48.978;18.066;2023-07-08T14:47:10;2.47;;;1.95;;
46767;SDS011;69007;48.978;18.066;2023-07-08T14:49:37;3.08;;;2.15;;
46767;SDS011;69007;48.978;18.066;2023-07-08T14:52:02;3.60;;;2.40;;
46767;SDS011;69007;48.978;18.066;2023-07-08T14:54:28;2.10;;;1.90;;
46767;SDS011;69007;48.978;18.066;2023-07-08T14:56:54;2.85;;;2.17;;
46767;SDS011;69007;48.978;18.066;2023-07-08T14:59:22;3.10;;;2.20;;
46767;SDS011;69007;48.978;18.066;2023-07-08T15:01:49;2.35;;;2.10;;
46767;SDS011;69007;48.978;18.066;2023-07-08T15:04:17;7.18;;;2.50;;
46767;SDS011;69007;48.978;18.066;2023-07-08T15:06:43;2.45;;;2.08;;
46767;SDS011;69007;48.978;18.066;2023-07-08T15:09:10;8.50;;;2.35;;
46767;SDS011;69007;48.978;18.066;2023-07-08T15:11:36;5.00;;;2.33;;
46767;SDS011;69007;48.978;18.066;2023-07-08T15:14:03;3.50;;;2.60;;
46767;SDS011;69007;48.978;18.066;2023-07-08T15:16:34;2.40;;;2.17;;
46767;SDS011;69007;48.978;18.066;2023-07-08T15:19:00;3.53;;;2.35;;
46767;SDS011;69007;48.978;18.066;2023-07-08T15:21:25;4.93;;;2.22;;
46767;SDS011;69007;48.978;18.066;2023-07-08T15:23:51;3.05;;;2.20;;
46767;SDS011;69007;48.978;18.066;2023-07-08T15:26:16;4.25;;;2.00;;
46767;SDS011;69007;48.978;18.066;2023-07-08T15:28:43;3.03;;;2.13;;
46767;SDS011;69007;48.978;18.066;2023-07-08T15:31:15;6.05;;;2.40;;
46767;SDS011;69007;48.978;18.066;2023-07-08T15:33:46;2.70;;;2.15;;
46767;SDS011;69007;48.978;18.066;2023-07-08T15:36:12;2.53;;;2.30;;
46767;SDS011;69007;48.978;18.066;2023-07-08T15:38:41;2.75;;;2.33;;
46767;SDS011;69007;48.978;18.066;2023-07-08T15:41:25;2.05;;;1.95;;
46767;SDS011;69007;48.978;18.066;2023-07-08T15:43:52;4.25;;;2.20;;
46767;SDS011;69007;48.978;18.066;2023-07-08T15:46:19;4.72;;;2.38;;
46767;SDS011;69007;48.978;18.066;2023-07-08T15:48:44;5.57;;;2.60;;